sensor_id;sensor_type;location;lat;lon;timestamp;P1;durP1;ratioP1;P2;durP2;ratioP2
16127;SDS011;8168;49.036;7.690;2023-06-22T00:00:00;10.85;;;5.03;;
16127;SDS011;8168;49.036;7.690;2023-06-22T00:02:30;6.30;;;5.10;;
16127;SDS011;8168;49.036;7.690;2023-06-22T00:05:01;9.45;;;5.03;;
16127;SDS011;8168;49.036;7.690;2023-06-22T00:07:31;6.20;;;5.10;;
16127;SDS011;8168;49.036;7.690;2023-06-22T00:10:02;6.67;;;5.07;;
16127;SDS011;8168;49.036;7.690;2023-06-22T00:12:33;6.95;;;4.80;;
16127;SDS011;8168;49.036;7.690;2023-06-22T00:15:04;6.57;;;5.05;;
16127;SDS011;8168;49.036;7.690;2023-06-22T00:17:35;11.18;;;5.78;;
16127;SDS011;8168;49.036;7.690;2023-06-22T00:20:05;8.00;;;4.95;;
16127;SDS011;8168;49.036;7.690;2023-06-22T00:22:38;8.33;;;5.97;;
16127;SDS011;8168;49.036;7.690;2023-06-22T00:25:09;7.72;;;5.57;;
16127;SDS011;8168;49.036;7.690;2023-06-22T00:27:40;8.40;;;6.00;;
16127;SDS011;8168;49.036;7.690;2023-06-22T00:30:11;9.00;;;5.38;;
16127;SDS011;8168;49.036;7.690;2023-06-22T00:32:42;9.80;;;6.20;;
16127;SDS011;8168;49.036;7.690;2023-06-22T00:35:14;6.03;;;5.43;;
16127;SDS011;8168;49.036;7.690;2023-06-22T00:37:44;7.53;;;6.07;;
16127;SDS011;8168;49.036;7.690;2023-06-22T00:40:15;10.57;;;5.35;;
16127;SDS011;8168;49.036;7.690;2023-06-22T00:42:47;7.70;;;6.00;;
16127;SDS011;8168;49.036;7.690;2023-06-22T00:45:18;7.18;;;5.63;;
16127;SDS011;8168;49.036;7.690;2023-06-22T00:47:49;8.10;;;6.30;;
16127;SDS011;8168;49.036;7.690;2023-06-22T00:50:25;8.10;;;5.57;;
16127;SDS011;8168;49.036;7.690;2023-06-22T00:52:58;7.10;;;6.03;;
16127;SDS011;8168;49.036;7.690;2023-06-22T00:55:31;8.52;;;5.68;;
16127;SDS011;8168;49.036;7.690;2023-06-22T00:58:01;10.55;;;6.40;;
16127;SDS011;8168;49.036;7.690;2023-06-22T01:00:32;8.23;;;6.50;;
16127;SDS011;8168;49.036;7.690;2023-06-22T01:03:03;8.53;;;5.87;;
16127;SDS011;8168;49.036;7.690;2023-06-22T01:05:34;8.97;;;6.70;;
16127;SDS011;8168;49.036;7.690;2023-06-22T01:19:01;7.10;;;6.05;;
16127;SDS011;8168;49.036;7.690;2023-06-22T01:21:55;7.53;;;6.10;;
16127;SDS011;8168;49.036;7.690;2023-06-22T01:24:30;6.93;;;5.90;;
16127;SDS011;8168;49.036;7.690;2023-06-22T01:29:55;7.70;;;6.13;;
16127;SDS011;8168;49.036;7.690;2023-06-22T01:32:34;8.17;;;6.50;;
16127;SDS011;8168;49.036;7.690;2023-06-22T01:35:07;11.00;;;6.50;;
16127;SDS011;8168;49.036;7.690;2023-06-22T01:37:39;9.35;;;5.95;;
16127;SDS011;8168;49.036;7.690;2023-06-22T01:40:10;7.65;;;6.13;;
16127;SDS011;8168;49.036;7.690;2023-06-22T01:42:41;6.95;;;6.00;;
16127;SDS011;8168;49.036;7.690;2023-06-22T01:45:14;7.45;;;6.00;;
16127;SDS011;8168;49.036;7.690;2023-06-22T01:47:45;9.27;;;6.75;;
16127;SDS011;8168;49.036;7.690;2023-06-22T01:50:17;7.80;;;6.53;;
16127;SDS011;8168;49.036;7.690;2023-06-22T01:52:48;10.67;;;5.83;;
16127;SDS011;8168;49.036;7.690;2023-06-22T01:55:18;6.80;;;6.03;;
16127;SDS011;8168;49.036;7.690;2023-06-22T01:57:49;7.60;;;5.60;;
16127;SDS011;8168;49.036;7.690;2023-06-22T02:00:20;6.90;;;6.20;;
16127;SDS011;8168;49.036;7.690;2023-06-22T02:05:28;7.90;;;6.00;;
16127;SDS011;8168;49.036;7.690;2023-06-22T02:08:15;6.67;;;5.97;;
16127;SDS011;8168;49.036;7.690;2023-06-22T02:10:53;7.30;;;6.20;;
16127;SDS011;8168;49.036;7.690;2023-06-22T02:13:26;9.63;;;6.38;;
16127;SDS011;8168;49.036;7.690;2023-06-22T02:15:57;6.75;;;5.72;;
16127;SDS011;8168;49.036;7.690;2023-06-22T02:18:29;9.57;;;6.30;;
16127;SDS011;8168;49.036;7.690;2023-06-22T02:21:00;8.63;;;6.37;;
16127;SDS011;8168;49.036;7.690;2023-06-22T02:23:30;7.43;;;6.00;;
16127;SDS011;8168;49.036;7.690;2023-06-22T02:26:03;9.18;;;6.05;;
16127;SDS011;8168;49.036;7.690;2023-06-22T02:28:34;6.65;;;5.45;;
16127;SDS011;8168;49.036;7.690;2023-06-22T02:31:04;6.20;;;5.60;;
16127;SDS011;8168;49.036;7.690;2023-06-22T02:33:35;6.60;;;6.00;;
16127;SDS011;8168;49.036;7.690;2023-06-22T02:36:05;6.88;;;6.15;;
16127;SDS011;8168;49.036;7.690;2023-06-22T02:38:42;8.02;;;5.28;;
16127;SDS011;8168;49.036;7.690;2023-06-22T02:41:18;6.30;;;5.50;;
16127;SDS011;8168;49.036;7.690;2023-06-22T02:43:49;7.90;;;5.80;;
16127;SDS011;8168;49.036;7.690;2023-06-22T02:46:19;6.73;;;5.30;;
16127;SDS011;8168;49.036;7.690;2023-06-22T02:48:50;5.20;;;4.70;;
16127;SDS011;8168;49.036;7.690;2023-06-22T02:51:20;5.70;;;4.82;;
16127;SDS011;8168;49.036;7.690;2023-06-22T02:53:51;6.70;;;4.60;;
16127;SDS011;8168;49.036;7.690;2023-06-22T02:56:28;5.87;;;5.20;;
16127;SDS011;8168;49.036;7.690;2023-06-22T02:59:00;5.10;;;4.60;;
16127;SDS011;8168;49.036;7.690;2023-06-22T03:01:31;6.70;;;5.10;;
16127;SDS011;8168;49.036;7.690;2023-06-22T03:04:09;4.97;;;4.47;;
16127;SDS011;8168;49.036;7.690;2023-06-22T03:06:40;6.00;;;5.10;;
16127;SDS011;8168;49.036;7.690;2023-06-22T03:09:11;7.37;;;4.70;;
16127;SDS011;8168;49.036;7.690;2023-06-22T03:11:41;5.45;;;4.50;;
16127;SDS011;8168;49.036;7.690;2023-06-22T03:14:12;5.10;;;4.60;;
16127;SDS011;8168;49.036;7.690;2023-06-22T03:16:43;10.57;;;5.67;;
16127;SDS011;8168;49.036;7.690;2023-06-22T03:19:13;5.80;;;5.20;;
16127;SDS011;8168;49.036;7.690;2023-06-22T03:21:44;7.13;;;5.13;;
16127;SDS011;8168;49.036;7.690;2023-06-22T03:24:14;8.20;;;5.47;;
16127;SDS011;8168;49.036;7.690;2023-06-22T03:26:45;6.77;;;5.20;;
16127;SDS011;8168;49.036;7.690;2023-06-22T03:29:16;7.53;;;5.83;;
16127;SDS011;8168;49.036;7.690;2023-06-22T03:31:47;5.80;;;5.20;;
16127;SDS011;8168;49.036;7.690;2023-06-22T03:34:17;7.13;;;5.50;;
16127;SDS011;8168;49.036;7.690;2023-06-22T03:36:49;13.47;;;5.90;;
16127;SDS011;8168;49.036;7.690;2023-06-22T03:39:19;7.50;;;5.37;;
16127;SDS011;8168;49.036;7.690;2023-06-22T03:41:50;7.60;;;5.80;;
16127;SDS011;8168;49.036;7.690;2023-06-22T03:44:20;10.93;;;5.13;;
16127;SDS011;8168;49.036;7.690;2023-06-22T03:46:51;8.20;;;5.37;;
16127;SDS011;8168;49.036;7.690;2023-06-22T03:49:22;13.60;;;5.13;;
16127;SDS011;8168;49.036;7.690;2023-06-22T03:51:52;10.43;;;5.80;;
16127;SDS011;8168;49.036;7.690;2023-06-22T03:54:23;6.57;;;5.53;;
16127;SDS011;8168;49.036;7.690;2023-06-22T03:56:53;8.37;;;5.53;;
16127;SDS011;8168;49.036;7.690;2023-06-22T03:59:24;8.77;;;6.40;;
16127;SDS011;8168;49.036;7.690;2023-06-22T04:01:55;7.77;;;6.93;;
16127;SDS011;8168;49.036;7.690;2023-06-22T04:04:25;7.90;;;6.50;;
16127;SDS011;8168;49.036;7.690;2023-06-22T04:06:56;6.33;;;5.60;;
16127;SDS011;8168;49.036;7.690;2023-06-22T04:09:27;11.20;;;6.00;;
16127;SDS011;8168;49.036;7.690;2023-06-22T04:11:57;9.20;;;5.93;;
16127;SDS011;8168;49.036;7.690;2023-06-22T04:14:28;7.73;;;5.00;;
16127;SDS011;8168;49.036;7.690;2023-06-22T04:16:58;5.20;;;4.67;;
16127;SDS011;8168;49.036;7.690;2023-06-22T04:19:29;7.47;;;5.03;;
16127;SDS011;8168;49.036;7.690;2023-06-22T04:22:00;5.67;;;4.27;;
16127;SDS011;8168;49.036;7.690;2023-06-22T04:24:30;6.07;;;4.33;;
16127;SDS011;8168;49.036;7.690;2023-06-22T04:27:01;5.60;;;4.57;;
16127;SDS011;8168;49.036;7.690;2023-06-22T04:29:32;5.50;;;4.90;;
16127;SDS011;8168;49.036;7.690;2023-06-22T04:32:03;4.50;;;3.93;;
16127;SDS011;8168;49.036;7.690;2023-06-22T04:34:35;6.20;;;4.73;;
16127;SDS011;8168;49.036;7.690;2023-06-22T04:37:05;5.13;;;4.63;;
16127;SDS011;8168;49.036;7.690;2023-06-22T04:39:36;5.73;;;4.90;;
16127;SDS011;8168;49.036;7.690;2023-06-22T04:42:07;5.63;;;4.50;;
16127;SDS011;8168;49.036;7.690;2023-06-22T04:44:38;5.60;;;5.03;;
16127;SDS011;8168;49.036;7.690;2023-06-22T04:47:09;5.70;;;5.20;;
16127;SDS011;8168;49.036;7.690;2023-06-22T04:49:40;7.10;;;5.20;;
16127;SDS011;8168;49.036;7.690;2023-06-22T04:52:13;5.60;;;5.10;;
16127;SDS011;8168;49.036;7.690;2023-06-22T04:54:47;5.20;;;4.70;;
16127;SDS011;8168;49.036;7.690;2023-06-22T04:57:20;5.73;;;4.67;;
16127;SDS011;8168;49.036;7.690;2023-06-22T05:00:02;6.67;;;5.83;;
16127;SDS011;8168;49.036;7.690;2023-06-22T05:02:42;7.47;;;5.40;;
16127;SDS011;8168;49.036;7.690;2023-06-22T05:05:15;8.67;;;5.93;;
16127;SDS011;8168;49.036;7.690;2023-06-22T05:07:46;6.33;;;5.73;;
16127;SDS011;8168;49.036;7.690;2023-06-22T05:10:22;9.77;;;5.90;;
16127;SDS011;8168;49.036;7.690;2023-06-22T05:12:53;7.13;;;5.97;;
16127;SDS011;8168;49.036;7.690;2023-06-22T05:15:24;7.80;;;6.63;;
16127;SDS011;8168;49.036;7.690;2023-06-22T05:17:58;7.90;;;5.90;;
16127;SDS011;8168;49.036;7.690;2023-06-22T05:20:28;6.73;;;5.60;;
16127;SDS011;8168;49.036;7.690;2023-06-22T05:22:59;6.13;;;5.53;;
16127;SDS011;8168;49.036;7.690;2023-06-22T05:25:29;7.10;;;5.70;;
16127;SDS011;8168;49.036;7.690;2023-06-22T05:28:02;7.27;;;5.87;;
16127;SDS011;8168;49.036;7.690;2023-06-22T05:30:40;6.10;;;5.50;;
16127;SDS011;8168;49.036;7.690;2023-06-22T05:33:11;7.10;;;6.03;;
16127;SDS011;8168;49.036;7.690;2023-06-22T05:35:42;11.53;;;6.73;;
16127;SDS011;8168;49.036;7.690;2023-06-22T05:38:12;8.43;;;6.37;;
16127;SDS011;8168;49.036;7.690;2023-06-22T05:40:43;7.80;;;6.80;;
16127;SDS011;8168;49.036;7.690;2023-06-22T05:43:14;6.80;;;6.10;;
16127;SDS011;8168;49.036;7.690;2023-06-22T05:45:45;8.53;;;6.80;;
16127;SDS011;8168;49.036;7.690;2023-06-22T05:48:16;9.07;;;6.93;;
16127;SDS011;8168;49.036;7.690;2023-06-22T05:50:46;8.30;;;7.33;;
16127;SDS011;8168;49.036;7.690;2023-06-22T05:53:17;8.27;;;6.27;;
16127;SDS011;8168;49.036;7.690;2023-06-22T05:55:48;8.95;;;6.60;;
16127;SDS011;8168;49.036;7.690;2023-06-22T05:58:18;8.13;;;6.40;;
16127;SDS011;8168;49.036;7.690;2023-06-22T06:00:49;9.05;;;6.53;;
16127;SDS011;8168;49.036;7.690;2023-06-22T06:03:20;8.80;;;6.45;;
16127;SDS011;8168;49.036;7.690;2023-06-22T06:05:50;7.70;;;5.70;;
16127;SDS011;8168;49.036;7.690;2023-06-22T06:08:21;9.73;;;6.35;;
16127;SDS011;8168;49.036;7.690;2023-06-22T06:10:51;8.10;;;6.53;;
16127;SDS011;8168;49.036;7.690;2023-06-22T06:13:24;8.25;;;6.90;;
16127;SDS011;8168;49.036;7.690;2023-06-22T06:15:54;8.23;;;6.40;;
16127;SDS011;8168;49.036;7.690;2023-06-22T06:18:26;6.75;;;6.05;;
16127;SDS011;8168;49.036;7.690;2023-06-22T06:20:56;8.63;;;5.57;;
16127;SDS011;8168;49.036;7.690;2023-06-22T06:23:27;6.70;;;6.00;;
16127;SDS011;8168;49.036;7.690;2023-06-22T06:25:57;7.07;;;5.70;;
16127;SDS011;8168;49.036;7.690;2023-06-22T06:28:28;8.70;;;5.60;;
16127;SDS011;8168;49.036;7.690;2023-06-22T06:30:59;7.20;;;5.10;;
16127;SDS011;8168;49.036;7.690;2023-06-22T06:33:32;6.35;;;5.32;;
16127;SDS011;8168;49.036;7.690;2023-06-22T06:36:03;6.13;;;5.18;;
16127;SDS011;8168;49.036;7.690;2023-06-22T06:38:34;6.75;;;5.32;;
16127;SDS011;8168;49.036;7.690;2023-06-22T06:41:04;9.15;;;5.53;;
16127;SDS011;8168;49.036;7.690;2023-06-22T06:43:35;7.50;;;5.38;;
16127;SDS011;8168;49.036;7.690;2023-06-22T06:46:05;6.93;;;5.63;;
16127;SDS011;8168;49.036;7.690;2023-06-22T06:48:36;8.18;;;5.15;;
16127;SDS011;8168;49.036;7.690;2023-06-22T06:51:07;7.32;;;5.82;;
16127;SDS011;8168;49.036;7.690;2023-06-22T06:53:40;6.22;;;4.97;;
16127;SDS011;8168;49.036;7.690;2023-06-22T06:56:11;6.28;;;4.88;;
16127;SDS011;8168;49.036;7.690;2023-06-22T06:58:42;6.40;;;5.63;;
16127;SDS011;8168;49.036;7.690;2023-06-22T07:01:12;5.43;;;4.80;;
16127;SDS011;8168;49.036;7.690;2023-06-22T07:03:43;6.60;;;5.40;;
16127;SDS011;8168;49.036;7.690;2023-06-22T07:06:14;8.23;;;5.28;;
16127;SDS011;8168;49.036;7.690;2023-06-22T07:08:44;5.70;;;4.97;;
16127;SDS011;8168;49.036;7.690;2023-06-22T07:11:15;8.07;;;5.30;;
16127;SDS011;8168;49.036;7.690;2023-06-22T07:13:45;9.98;;;5.70;;
16127;SDS011;8168;49.036;7.690;2023-06-22T07:16:16;6.03;;;4.70;;
16127;SDS011;8168;49.036;7.690;2023-06-22T07:18:47;8.48;;;5.57;;
16127;SDS011;8168;49.036;7.690;2023-06-22T07:21:17;5.85;;;4.93;;
16127;SDS011;8168;49.036;7.690;2023-06-22T07:23:48;5.45;;;4.95;;
16127;SDS011;8168;49.036;7.690;2023-06-22T07:26:19;6.32;;;5.05;;
16127;SDS011;8168;49.036;7.690;2023-06-22T07:28:49;7.55;;;5.15;;
16127;SDS011;8168;49.036;7.690;2023-06-22T07:31:20;5.60;;;4.78;;
16127;SDS011;8168;49.036;7.690;2023-06-22T07:33:51;5.80;;;4.90;;
16127;SDS011;8168;49.036;7.690;2023-06-22T07:36:22;7.13;;;5.38;;
16127;SDS011;8168;49.036;7.690;2023-06-22T07:38:52;5.85;;;5.13;;
16127;SDS011;8168;49.036;7.690;2023-06-22T07:41:23;6.47;;;4.93;;
16127;SDS011;8168;49.036;7.690;2023-06-22T07:43:54;5.55;;;4.47;;
16127;SDS011;8168;49.036;7.690;2023-06-22T07:46:24;7.15;;;4.35;;
16127;SDS011;8168;49.036;7.690;2023-06-22T07:48:55;5.38;;;4.88;;
16127;SDS011;8168;49.036;7.690;2023-06-22T07:51:26;5.82;;;4.68;;
16127;SDS011;8168;49.036;7.690;2023-06-22T07:53:57;6.13;;;4.80;;
16127;SDS011;8168;49.036;7.690;2023-06-22T07:56:28;6.88;;;4.35;;
16127;SDS011;8168;49.036;7.690;2023-06-22T07:58:58;5.22;;;4.72;;
16127;SDS011;8168;49.036;7.690;2023-06-22T08:01:30;4.85;;;4.15;;
16127;SDS011;8168;49.036;7.690;2023-06-22T08:04:01;5.32;;;4.57;;
16127;SDS011;8168;49.036;7.690;2023-06-22T08:06:32;5.82;;;4.50;;
16127;SDS011;8168;49.036;7.690;2023-06-22T08:09:02;5.45;;;4.10;;
16127;SDS011;8168;49.036;7.690;2023-06-22T08:11:33;5.13;;;4.38;;
16127;SDS011;8168;49.036;7.690;2023-06-22T08:14:04;5.60;;;4.97;;
16127;SDS011;8168;49.036;7.690;2023-06-22T08:16:34;6.65;;;5.43;;
16127;SDS011;8168;49.036;7.690;2023-06-22T08:19:05;7.80;;;4.15;;
16127;SDS011;8168;49.036;7.690;2023-06-22T08:21:36;4.80;;;4.30;;
16127;SDS011;8168;49.036;7.690;2023-06-22T08:24:07;6.82;;;4.38;;
16127;SDS011;8168;49.036;7.690;2023-06-22T08:26:38;7.97;;;4.20;;
16127;SDS011;8168;49.036;7.690;2023-06-22T08:29:09;9.88;;;4.40;;
16127;SDS011;8168;49.036;7.690;2023-06-22T08:31:39;4.38;;;3.92;;
16127;SDS011;8168;49.036;7.690;2023-06-22T08:34:10;10.55;;;4.88;;
16127;SDS011;8168;49.036;7.690;2023-06-22T08:36:40;5.40;;;4.18;;
16127;SDS011;8168;49.036;7.690;2023-06-22T08:39:13;6.15;;;4.45;;
16127;SDS011;8168;49.036;7.690;2023-06-22T08:41:43;5.15;;;4.25;;
16127;SDS011;8168;49.036;7.690;2023-06-22T08:44:16;5.22;;;4.20;;
16127;SDS011;8168;49.036;7.690;2023-06-22T08:46:48;4.68;;;3.92;;
16127;SDS011;8168;49.036;7.690;2023-06-22T08:49:19;8.00;;;4.57;;
16127;SDS011;8168;49.036;7.690;2023-06-22T08:51:49;5.90;;;4.78;;
16127;SDS011;8168;49.036;7.690;2023-06-22T08:54:23;6.57;;;4.63;;
16127;SDS011;8168;49.036;7.690;2023-06-22T08:56:53;5.80;;;4.53;;
16127;SDS011;8168;49.036;7.690;2023-06-22T08:59:24;5.18;;;4.35;;
16127;SDS011;8168;49.036;7.690;2023-06-22T09:01:54;5.32;;;4.43;;
16127;SDS011;8168;49.036;7.690;2023-06-22T09:04:25;5.53;;;5.03;;
16127;SDS011;8168;49.036;7.690;2023-06-22T09:06:56;8.55;;;4.85;;
16127;SDS011;8168;49.036;7.690;2023-06-22T09:09:26;5.30;;;4.68;;
16127;SDS011;8168;49.036;7.690;2023-06-22T09:11:57;5.65;;;4.95;;
16127;SDS011;8168;49.036;7.690;2023-06-22T09:14:27;5.85;;;5.00;;
16127;SDS011;8168;49.036;7.690;2023-06-22T09:16:58;4.95;;;4.45;;
16127;SDS011;8168;49.036;7.690;2023-06-22T09:19:29;7.03;;;4.30;;
16127;SDS011;8168;49.036;7.690;2023-06-22T09:21:59;6.80;;;5.15;;
16127;SDS011;8168;49.036;7.690;2023-06-22T09:24:30;5.50;;;5.00;;
16127;SDS011;8168;49.036;7.690;2023-06-22T09:27:01;9.77;;;5.22;;
16127;SDS011;8168;49.036;7.690;2023-06-22T09:29:31;10.98;;;5.13;;
16127;SDS011;8168;49.036;7.690;2023-06-22T09:32:03;6.40;;;5.05;;
16127;SDS011;8168;49.036;7.690;2023-06-22T09:34:34;5.70;;;4.95;;
16127;SDS011;8168;49.036;7.690;2023-06-22T09:37:05;7.22;;;5.07;;
16127;SDS011;8168;49.036;7.690;2023-06-22T09:39:35;8.43;;;4.80;;
16127;SDS011;8168;49.036;7.690;2023-06-22T09:42:07;7.50;;;4.75;;
16127;SDS011;8168;49.036;7.690;2023-06-22T09:44:38;6.45;;;4.85;;
16127;SDS011;8168;49.036;7.690;2023-06-22T09:47:08;6.15;;;5.15;;
16127;SDS011;8168;49.036;7.690;2023-06-22T09:49:39;9.90;;;5.32;;
16127;SDS011;8168;49.036;7.690;2023-06-22T09:52:09;5.65;;;4.63;;
16127;SDS011;8168;49.036;7.690;2023-06-22T09:54:41;6.22;;;5.10;;
16127;SDS011;8168;49.036;7.690;2023-06-22T09:57:12;8.27;;;5.45;;
16127;SDS011;8168;49.036;7.690;2023-06-22T09:59:43;5.47;;;4.50;;
16127;SDS011;8168;49.036;7.690;2023-06-22T10:02:13;9.18;;;5.10;;
16127;SDS011;8168;49.036;7.690;2023-06-22T10:04:44;5.78;;;4.80;;
16127;SDS011;8168;49.036;7.690;2023-06-22T10:07:14;6.22;;;5.18;;
16127;SDS011;8168;49.036;7.690;2023-06-22T10:09:45;11.02;;;5.40;;
16127;SDS011;8168;49.036;7.690;2023-06-22T10:12:15;5.65;;;5.05;;
16127;SDS011;8168;49.036;7.690;2023-06-22T10:14:46;7.68;;;5.10;;
16127;SDS011;8168;49.036;7.690;2023-06-22T10:17:17;5.38;;;4.55;;
16127;SDS011;8168;49.036;7.690;2023-06-22T10:19:47;6.88;;;5.20;;
16127;SDS011;8168;49.036;7.690;2023-06-22T10:22:18;8.70;;;5.43;;
16127;SDS011;8168;49.036;7.690;2023-06-22T10:24:48;9.25;;;4.95;;
16127;SDS011;8168;49.036;7.690;2023-06-22T10:27:19;6.60;;;4.93;;
16127;SDS011;8168;49.036;7.690;2023-06-22T10:29:50;6.90;;;4.53;;
16127;SDS011;8168;49.036;7.690;2023-06-22T10:32:20;7.90;;;5.10;;
16127;SDS011;8168;49.036;7.690;2023-06-22T10:34:51;7.47;;;5.35;;
16127;SDS011;8168;49.036;7.690;2023-06-22T10:37:22;6.57;;;5.10;;
16127;SDS011;8168;49.036;7.690;2023-06-22T10:39:52;6.43;;;5.10;;
16127;SDS011;8168;49.036;7.690;2023-06-22T10:42:23;6.68;;;4.88;;
16127;SDS011;8168;49.036;7.690;2023-06-22T10:44:54;6.55;;;5.13;;
16127;SDS011;8168;49.036;7.690;2023-06-22T10:47:24;5.55;;;5.05;;
16127;SDS011;8168;49.036;7.690;2023-06-22T10:49:55;6.63;;;5.18;;
16127;SDS011;8168;49.036;7.690;2023-06-22T10:52:25;7.93;;;5.90;;
16127;SDS011;8168;49.036;7.690;2023-06-22T10:54:56;6.13;;;5.25;;
16127;SDS011;8168;49.036;7.690;2023-06-22T10:57:27;5.75;;;5.00;;
16127;SDS011;8168;49.036;7.690;2023-06-22T10:59:58;6.75;;;5.88;;
16127;SDS011;8168;49.036;7.690;2023-06-22T11:02:28;7.75;;;5.20;;
16127;SDS011;8168;49.036;7.690;2023-06-22T11:04:59;8.07;;;5.45;;
16127;SDS011;8168;49.036;7.690;2023-06-22T11:07:30;8.27;;;6.20;;
16127;SDS011;8168;49.036;7.690;2023-06-22T11:10:01;9.73;;;6.53;;
16127;SDS011;8168;49.036;7.690;2023-06-22T11:12:31;6.28;;;5.28;;
16127;SDS011;8168;49.036;7.690;2023-06-22T11:15:02;8.60;;;5.75;;
16127;SDS011;8168;49.036;7.690;2023-06-22T11:17:33;6.32;;;5.72;;
16127;SDS011;8168;49.036;7.690;2023-06-22T11:20:04;5.95;;;5.43;;
16127;SDS011;8168;49.036;7.690;2023-06-22T11:22:45;8.80;;;5.93;;
16127;SDS011;8168;49.036;7.690;2023-06-22T11:25:15;6.90;;;5.75;;
16127;SDS011;8168;49.036;7.690;2023-06-22T11:27:46;6.28;;;5.47;;
16127;SDS011;8168;49.036;7.690;2023-06-22T11:30:17;9.30;;;5.65;;
16127;SDS011;8168;49.036;7.690;2023-06-22T11:32:47;7.32;;;5.50;;
16127;SDS011;8168;49.036;7.690;2023-06-22T11:35:18;9.32;;;6.30;;
16127;SDS011;8168;49.036;7.690;2023-06-22T11:37:48;8.57;;;5.85;;
16127;SDS011;8168;49.036;7.690;2023-06-22T11:40:19;6.45;;;5.43;;
16127;SDS011;8168;49.036;7.690;2023-06-22T11:42:53;7.82;;;5.22;;
16127;SDS011;8168;49.036;7.690;2023-06-22T11:45:23;7.60;;;6.20;;
16127;SDS011;8168;49.036;7.690;2023-06-22T11:47:54;6.82;;;5.38;;
16127;SDS011;8168;49.036;7.690;2023-06-22T11:50:24;6.85;;;5.55;;
16127;SDS011;8168;49.036;7.690;2023-06-22T11:52:55;9.40;;;5.90;;
16127;SDS011;8168;49.036;7.690;2023-06-22T11:55:26;8.07;;;6.00;;
16127;SDS011;8168;49.036;7.690;2023-06-22T11:57:57;10.00;;;5.63;;
16127;SDS011;8168;49.036;7.690;2023-06-22T12:00:30;9.68;;;6.38;;
16127;SDS011;8168;49.036;7.690;2023-06-22T12:03:01;8.40;;;6.43;;
16127;SDS011;8168;49.036;7.690;2023-06-22T12:05:31;9.52;;;6.15;;
16127;SDS011;8168;49.036;7.690;2023-06-22T12:08:02;7.72;;;5.53;;
16127;SDS011;8168;49.036;7.690;2023-06-22T12:10:32;8.85;;;6.10;;
16127;SDS011;8168;49.036;7.690;2023-06-22T12:13:04;8.75;;;5.97;;
16127;SDS011;8168;49.036;7.690;2023-06-22T12:15:34;14.45;;;6.63;;
16127;SDS011;8168;49.036;7.690;2023-06-22T12:18:05;7.32;;;6.18;;
16127;SDS011;8168;49.036;7.690;2023-06-22T12:20:36;7.57;;;6.00;;
16127;SDS011;8168;49.036;7.690;2023-06-22T12:23:06;10.68;;;6.47;;
16127;SDS011;8168;49.036;7.690;2023-06-22T12:25:37;9.85;;;7.07;;
16127;SDS011;8168;49.036;7.690;2023-06-22T12:28:08;10.02;;;7.00;;
16127;SDS011;8168;49.036;7.690;2023-06-22T12:30:38;9.25;;;6.38;;
16127;SDS011;8168;49.036;7.690;2023-06-22T12:33:09;8.70;;;6.25;;
16127;SDS011;8168;49.036;7.690;2023-06-22T12:35:40;7.68;;;5.93;;
16127;SDS011;8168;49.036;7.690;2023-06-22T12:38:10;7.57;;;6.28;;
16127;SDS011;8168;49.036;7.690;2023-06-22T12:40:41;8.32;;;6.60;;
16127;SDS011;8168;49.036;7.690;2023-06-22T12:43:11;7.63;;;6.18;;
16127;SDS011;8168;49.036;7.690;2023-06-22T12:45:42;8.45;;;6.20;;
16127;SDS011;8168;49.036;7.690;2023-06-22T12:48:13;7.55;;;6.30;;
16127;SDS011;8168;49.036;7.690;2023-06-22T12:50:44;10.48;;;6.32;;
16127;SDS011;8168;49.036;7.690;2023-06-22T12:53:14;8.63;;;6.05;;
16127;SDS011;8168;49.036;7.690;2023-06-22T12:55:45;9.32;;;6.47;;
16127;SDS011;8168;49.036;7.690;2023-06-22T12:58:16;6.15;;;5.50;;
16127;SDS011;8168;49.036;7.690;2023-06-22T13:00:46;7.57;;;5.63;;
16127;SDS011;8168;49.036;7.690;2023-06-22T13:03:17;7.57;;;5.65;;
16127;SDS011;8168;49.036;7.690;2023-06-22T13:05:48;8.05;;;5.35;;
16127;SDS011;8168;49.036;7.690;2023-06-22T13:08:18;10.18;;;5.45;;
16127;SDS011;8168;49.036;7.690;2023-06-22T13:10:49;8.70;;;5.40;;
16127;SDS011;8168;49.036;7.690;2023-06-22T13:13:20;9.35;;;5.03;;
16127;SDS011;8168;49.036;7.690;2023-06-22T13:15:50;10.45;;;5.40;;
16127;SDS011;8168;49.036;7.690;2023-06-22T13:18:22;10.23;;;4.65;;
16127;SDS011;8168;49.036;7.690;2023-06-22T13:20:53;6.72;;;5.00;;
16127;SDS011;8168;49.036;7.690;2023-06-22T13:23:24;8.18;;;5.80;;
16127;SDS011;8168;49.036;7.690;2023-06-22T13:25:55;7.53;;;5.85;;
16127;SDS011;8168;49.036;7.690;2023-06-22T13:28:25;7.00;;;5.93;;
16127;SDS011;8168;49.036;7.690;2023-06-22T13:30:56;8.23;;;5.68;;
16127;SDS011;8168;49.036;7.690;2023-06-22T13:33:27;10.95;;;6.20;;
16127;SDS011;8168;49.036;7.690;2023-06-22T13:35:57;9.55;;;6.22;;
16127;SDS011;8168;49.036;7.690;2023-06-22T13:38:28;8.15;;;5.85;;
16127;SDS011;8168;49.036;7.690;2023-06-22T13:40:58;11.85;;;5.72;;
16127;SDS011;8168;49.036;7.690;2023-06-22T13:43:29;11.93;;;6.70;;
16127;SDS011;8168;49.036;7.690;2023-06-22T13:46:00;10.35;;;5.95;;
16127;SDS011;8168;49.036;7.690;2023-06-22T13:48:30;10.07;;;6.50;;
16127;SDS011;8168;49.036;7.690;2023-06-22T13:51:01;10.38;;;5.93;;
16127;SDS011;8168;49.036;7.690;2023-06-22T13:53:32;5.95;;;5.20;;
16127;SDS011;8168;49.036;7.690;2023-06-22T13:56:03;7.20;;;5.20;;
16127;SDS011;8168;49.036;7.690;2023-06-22T13:58:34;9.75;;;5.63;;
16127;SDS011;8168;49.036;7.690;2023-06-22T14:01:04;8.20;;;5.47;;
16127;SDS011;8168;49.036;7.690;2023-06-22T14:03:35;13.55;;;5.63;;
16127;SDS011;8168;49.036;7.690;2023-06-22T14:06:05;9.70;;;6.20;;
16127;SDS011;8168;49.036;7.690;2023-06-22T14:08:36;9.98;;;6.03;;
16127;SDS011;8168;49.036;7.690;2023-06-22T14:11:07;7.95;;;5.65;;
16127;SDS011;8168;49.036;7.690;2023-06-22T14:13:38;7.57;;;6.65;;
16127;SDS011;8168;49.036;7.690;2023-06-22T14:16:08;10.05;;;6.68;;
16127;SDS011;8168;49.036;7.690;2023-06-22T14:18:39;8.32;;;5.95;;
16127;SDS011;8168;49.036;7.690;2023-06-22T14:21:10;8.50;;;6.10;;
16127;SDS011;8168;49.036;7.690;2023-06-22T14:23:40;8.88;;;6.35;;
16127;SDS011;8168;49.036;7.690;2023-06-22T14:26:11;12.20;;;6.57;;
16127;SDS011;8168;49.036;7.690;2023-06-22T14:28:41;10.00;;;6.30;;
16127;SDS011;8168;49.036;7.690;2023-06-22T14:31:14;11.20;;;6.05;;
16127;SDS011;8168;49.036;7.690;2023-06-22T14:33:45;9.77;;;6.47;;
16127;SDS011;8168;49.036;7.690;2023-06-22T14:36:17;12.02;;;6.53;;
16127;SDS011;8168;49.036;7.690;2023-06-22T14:38:48;9.13;;;5.78;;
16127;SDS011;8168;49.036;7.690;2023-06-22T14:41:19;10.95;;;6.55;;
16127;SDS011;8168;49.036;7.690;2023-06-22T14:43:50;9.10;;;6.50;;
16127;SDS011;8168;49.036;7.690;2023-06-22T14:46:20;10.57;;;7.13;;
16127;SDS011;8168;49.036;7.690;2023-06-22T14:48:51;11.63;;;6.70;;
16127;SDS011;8168;49.036;7.690;2023-06-22T14:51:22;11.20;;;6.53;;
16127;SDS011;8168;49.036;7.690;2023-06-22T14:53:52;7.63;;;6.07;;
16127;SDS011;8168;49.036;7.690;2023-06-22T14:56:23;8.88;;;6.13;;
16127;SDS011;8168;49.036;7.690;2023-06-22T14:58:53;8.57;;;6.68;;
16127;SDS011;8168;49.036;7.690;2023-06-22T15:01:24;9.50;;;5.72;;
16127;SDS011;8168;49.036;7.690;2023-06-22T15:03:55;10.65;;;6.20;;
16127;SDS011;8168;49.036;7.690;2023-06-22T15:06:25;7.75;;;5.97;;
16127;SDS011;8168;49.036;7.690;2023-06-22T15:08:57;8.90;;;5.85;;
16127;SDS011;8168;49.036;7.690;2023-06-22T15:11:27;7.72;;;6.15;;
16127;SDS011;8168;49.036;7.690;2023-06-22T15:13:58;9.95;;;5.68;;
16127;SDS011;8168;49.036;7.690;2023-06-22T15:16:30;10.80;;;6.32;;
16127;SDS011;8168;49.036;7.690;2023-06-22T15:19:00;13.60;;;5.97;;
16127;SDS011;8168;49.036;7.690;2023-06-22T15:21:32;8.80;;;5.80;;
16127;SDS011;8168;49.036;7.690;2023-06-22T15:24:03;11.40;;;5.75;;
16127;SDS011;8168;49.036;7.690;2023-06-22T15:26:34;5.82;;;4.80;;
16127;SDS011;8168;49.036;7.690;2023-06-22T15:29:04;8.68;;;4.97;;
16127;SDS011;8168;49.036;7.690;2023-06-22T15:31:35;6.32;;;3.88;;
16127;SDS011;8168;49.036;7.690;2023-06-22T15:34:05;7.97;;;3.30;;
16127;SDS011;8168;49.036;7.690;2023-06-22T15:36:36;5.40;;;3.30;;
16127;SDS011;8168;49.036;7.690;2023-06-22T15:39:07;3.88;;;2.72;;